createdAt,value
2018-07-30T00:01:24.989Z,21.90
2018-07-30T00:03:55.635Z,21.80
2018-07-30T00:06:26.400Z,21.70
2018-07-30T00:08:57.083Z,21.60
2018-07-30T00:11:27.792Z,21.50
2018-07-30T00:13:58.509Z,21.50
2018-07-30T00:16:29.113Z,21.40
2018-07-30T00:21:30.066Z,21.30
2018-07-30T00:24:00.940Z,21.30
2018-07-30T00:26:31.747Z,21.20
2018-07-30T00:29:02.419Z,21.10
2018-07-30T00:31:33.277Z,21.10
2018-07-30T00:34:03.833Z,21.10
2018-07-30T00:36:34.458Z,21.10
2018-07-30T00:39:08.560Z,21.10
2018-07-30T00:41:39.943Z,21.00
2018-07-30T00:44:10.628Z,21.00
2018-07-30T00:46:41.410Z,21.00
2018-07-30T00:49:12.302Z,20.90
2018-07-30T00:51:42.985Z,20.90
2018-07-30T00:54:19.260Z,21.00
2018-07-30T00:56:50.294Z,21.00
2018-07-30T00:59:21.205Z,21.00
2018-07-30T01:01:52.212Z,20.90
2018-07-30T01:04:23.329Z,20.80
2018-07-30T01:06:54.475Z,20.70
2018-07-30T01:09:25.412Z,20.60
2018-07-30T01:11:59.715Z,20.50
2018-07-30T01:14:30.814Z,20.40
2018-07-30T01:17:02.014Z,20.30
2018-07-30T01:19:33.151Z,20.20
2018-07-30T01:22:03.970Z,20.10
2018-07-30T01:24:34.625Z,20.00
2018-07-30T01:27:05.772Z,19.90
2018-07-30T01:29:36.562Z,19.90
2018-07-30T01:32:07.959Z,19.80
2018-07-30T01:34:39.030Z,19.80
2018-07-30T01:37:16.661Z,19.80
2018-07-30T01:39:47.914Z,19.70
2018-07-30T01:42:18.664Z,19.70
2018-07-30T01:44:49.464Z,19.60
2018-07-30T01:47:20.680Z,19.60
2018-07-30T01:49:51.343Z,19.50
2018-07-30T01:52:22.499Z,19.50
2018-07-30T01:54:53.490Z,19.50
2018-07-30T01:57:24.457Z,19.50
2018-07-30T01:59:55.689Z,19.40
2018-07-30T02:02:26.933Z,19.40
2018-07-30T02:04:59.811Z,19.40
2018-07-30T02:07:31.104Z,19.40
2018-07-30T02:10:02.327Z,19.40
2018-07-30T02:12:33.561Z,19.40
2018-07-30T02:15:04.829Z,19.30
2018-07-30T02:17:35.689Z,19.30
2018-07-30T02:20:07.135Z,19.30
2018-07-30T02:22:37.970Z,19.30
2018-07-30T02:25:09.524Z,19.20
2018-07-30T02:27:40.670Z,19.20
2018-07-30T02:30:11.603Z,19.20
2018-07-30T02:32:42.579Z,19.20
2018-07-30T02:35:13.407Z,19.20
2018-07-30T02:37:44.981Z,19.20
2018-07-30T02:40:15.999Z,19.10
2018-07-30T02:42:46.763Z,19.00
2018-07-30T02:45:17.468Z,19.00
2018-07-30T02:47:48.700Z,18.90
2018-07-30T02:50:19.898Z,18.90
2018-07-30T02:52:50.867Z,18.90
2018-07-30T02:55:21.961Z,18.90
2018-07-30T02:57:53.334Z,18.90
2018-07-30T03:00:24.036Z,18.90
2018-07-30T03:02:54.979Z,18.90
2018-07-30T03:05:26.146Z,18.90
2018-07-30T03:07:57.228Z,18.80
2018-07-30T03:10:28.382Z,18.80
2018-07-30T03:12:59.363Z,18.70
2018-07-30T03:15:30.259Z,18.70
2018-07-30T03:18:00.922Z,18.70
2018-07-30T03:20:31.714Z,18.70
2018-07-30T03:23:02.444Z,18.70
2018-07-30T03:25:33.305Z,18.70
2018-07-30T03:28:04.436Z,18.60
2018-07-30T03:30:35.352Z,18.60
2018-07-30T03:33:06.215Z,18.60
2018-07-30T03:35:37.029Z,18.60
2018-07-30T03:38:07.900Z,18.50
2018-07-30T03:40:39.152Z,18.50
2018-07-30T03:43:10.409Z,18.50
2018-07-30T03:45:41.168Z,18.50
2018-07-30T03:48:12.145Z,18.50
2018-07-30T03:50:43.486Z,18.50
2018-07-30T03:53:14.239Z,18.50
2018-07-30T03:55:45.055Z,18.50
2018-07-30T03:58:16.207Z,18.50
2018-07-30T04:00:47.408Z,18.50
2018-07-30T04:03:21.322Z,18.60
2018-07-30T04:05:52.255Z,18.60
2018-07-30T04:08:23.308Z,18.70
2018-07-30T04:10:54.367Z,18.70
2018-07-30T04:13:25.037Z,18.70
2018-07-30T04:15:55.796Z,18.70
2018-07-30T04:18:26.726Z,18.70
2018-07-30T04:20:57.518Z,18.70
2018-07-30T04:23:28.309Z,18.80
2018-07-30T04:25:59.005Z,18.80
2018-07-30T04:28:30.050Z,18.90
2018-07-30T04:31:01.200Z,18.90
2018-07-30T04:33:32.212Z,19.00
2018-07-30T04:36:03.140Z,19.10
2018-07-30T04:38:34.175Z,19.20
2018-07-30T04:41:05.692Z,19.30
2018-07-30T04:43:36.787Z,19.30
2018-07-30T04:46:07.745Z,19.40
2018-07-30T04:48:39.008Z,19.50
2018-07-30T04:51:09.638Z,19.60
2018-07-30T04:53:40.352Z,19.60
2018-07-30T04:56:11.545Z,19.70
2018-07-30T04:58:42.467Z,19.80
2018-07-30T05:01:13.192Z,19.90
2018-07-30T05:03:43.927Z,20.20
2018-07-30T05:06:14.547Z,20.70
2018-07-30T05:08:45.289Z,21.20
2018-07-30T05:11:16.048Z,21.80
2018-07-30T05:13:47.047Z,22.30
2018-07-30T05:16:17.799Z,22.70
2018-07-30T05:18:48.458Z,23.20
2018-07-30T05:21:19.224Z,23.50
2018-07-30T05:23:50.020Z,23.80
2018-07-30T05:26:20.895Z,24.10
2018-07-30T05:28:51.624Z,24.40
2018-07-30T05:31:22.632Z,24.50
2018-07-30T05:33:53.374Z,24.70
2018-07-30T05:36:24.061Z,24.90
2018-07-30T05:38:54.695Z,25.00
2018-07-30T05:41:25.389Z,25.00
2018-07-30T05:43:56.103Z,25.00
2018-07-30T05:46:26.749Z,25.00
2018-07-30T05:48:57.502Z,24.90
2018-07-30T05:51:28.231Z,24.90
2018-07-30T05:53:58.891Z,24.80
2018-07-30T05:58:59.529Z,24.70
2018-07-30T06:01:30.734Z,24.70
2018-07-30T06:04:01.664Z,24.70
2018-07-30T06:06:32.377Z,24.80
2018-07-30T06:09:03.146Z,24.80
2018-07-30T06:11:33.882Z,24.90
2018-07-30T06:14:04.738Z,25.00
2018-07-30T06:16:35.348Z,25.10
2018-07-30T06:19:06.904Z,25.30
2018-07-30T06:21:38.020Z,25.40
2018-07-30T06:24:08.902Z,25.40
2018-07-30T06:29:10.074Z,25.60
2018-07-30T06:31:40.721Z,25.70
2018-07-30T06:36:41.292Z,25.90
2018-07-30T06:39:12.172Z,25.90
2018-07-30T06:41:43.332Z,26.00
2018-07-30T06:44:14.297Z,26.00
2018-07-30T06:46:45.188Z,26.10
2018-07-30T06:49:16.156Z,26.20
2018-07-30T06:51:46.871Z,26.30
2018-07-30T06:54:17.443Z,26.40
2018-07-30T06:56:48.138Z,26.50
2018-07-30T06:59:20.320Z,26.60
2018-07-30T07:01:51.721Z,26.70
2018-07-30T07:04:22.448Z,26.70
2018-07-30T07:06:53.149Z,26.80
2018-07-30T07:09:24.260Z,27.00
2018-07-30T07:11:54.911Z,27.10
2018-07-30T07:14:25.628Z,27.20
2018-07-30T07:16:56.315Z,27.30
2018-07-30T07:19:27.120Z,27.40
2018-07-30T07:21:57.831Z,27.50
2018-07-30T07:24:28.443Z,27.60
2018-07-30T07:26:59.161Z,27.70
2018-07-30T07:29:29.874Z,27.80
2018-07-30T07:32:00.593Z,27.90
2018-07-30T07:34:31.345Z,28.10
2018-07-30T07:37:02.080Z,28.20
2018-07-30T07:39:32.769Z,28.30
2018-07-30T07:42:03.406Z,28.50
2018-07-30T07:44:34.054Z,28.60
2018-07-30T07:47:04.809Z,28.70
2018-07-30T07:49:35.410Z,28.90
2018-07-30T07:52:06.246Z,29.00
2018-07-30T07:54:37.303Z,29.10
2018-07-30T07:57:08.066Z,29.30
2018-07-30T07:59:39.193Z,29.30
2018-07-30T08:02:10.381Z,29.40
2018-07-30T08:04:41.104Z,29.40
2018-07-30T08:07:11.852Z,29.60
2018-07-30T08:09:42.558Z,29.80
2018-07-30T08:12:13.350Z,30.10
2018-07-30T08:14:44.161Z,30.40
2018-07-30T08:17:15.037Z,30.70
2018-07-30T08:19:45.869Z,31.20
2018-07-30T08:22:16.781Z,31.70
2018-07-30T08:24:47.458Z,32.10
2018-07-30T08:27:18.186Z,32.20
2018-07-30T08:29:49.089Z,32.30
2018-07-30T08:32:19.822Z,32.40
2018-07-30T08:34:50.474Z,32.30
2018-07-30T08:37:21.126Z,32.20
2018-07-30T08:39:51.894Z,32.20
2018-07-30T08:42:22.752Z,32.10
2018-07-30T08:44:53.660Z,31.80
2018-07-30T08:47:24.969Z,31.50
2018-07-30T08:49:55.687Z,31.50
2018-07-30T08:52:26.382Z,31.40
2018-07-30T08:54:57.082Z,31.20
2018-07-30T08:57:27.827Z,31.10
2018-07-30T08:59:58.892Z,31.00
2018-07-30T09:02:29.739Z,30.90
2018-07-30T09:05:00.479Z,30.90
2018-07-30T09:07:31.217Z,31.00
2018-07-30T09:10:01.933Z,31.10
2018-07-30T09:12:32.618Z,31.30
2018-07-30T09:15:03.191Z,31.50
2018-07-30T09:17:33.938Z,31.70
2018-07-30T09:20:05.128Z,31.80
2018-07-30T09:22:35.951Z,31.80
2018-07-30T09:25:06.581Z,31.90
2018-07-30T09:27:37.215Z,31.90
2018-07-30T09:30:07.930Z,31.90
2018-07-30T09:32:39.029Z,32.00
2018-07-30T09:35:10.047Z,32.10
2018-07-30T09:37:40.773Z,32.20
2018-07-30T09:40:12.069Z,32.30
2018-07-30T09:45:12.881Z,32.30
2018-07-30T09:47:43.542Z,32.40
2018-07-30T09:50:14.376Z,32.40
2018-07-30T09:52:45.120Z,32.40
2018-07-30T09:55:15.745Z,32.40
2018-07-30T09:57:46.761Z,32.20
2018-07-30T10:00:21.508Z,32.20
2018-07-30T10:02:52.224Z,32.30
2018-07-30T10:05:22.883Z,32.30
2018-07-30T10:07:53.707Z,32.30
2018-07-30T10:10:24.457Z,32.30
2018-07-30T10:12:55.526Z,32.30
2018-07-30T10:15:26.446Z,32.30
2018-07-30T10:17:57.209Z,32.20
2018-07-30T10:20:27.821Z,32.20
2018-07-30T10:22:58.371Z,32.10
2018-07-30T10:25:29.110Z,32.10
2018-07-30T10:27:59.671Z,32.20
2018-07-30T10:30:30.262Z,32.40
2018-07-30T10:33:01.074Z,32.80
2018-07-30T10:35:32.058Z,33.00
2018-07-30T10:38:03.017Z,33.40
2018-07-30T10:40:33.978Z,33.60
2018-07-30T10:43:04.753Z,33.80
2018-07-30T10:45:35.434Z,34.00
2018-07-30T10:48:06.137Z,34.30
2018-07-30T10:50:37.047Z,34.60
2018-07-30T10:56:21.477Z,35.40
2018-07-30T10:58:52.190Z,35.60
2018-07-30T11:01:23.181Z,35.80
2018-07-30T11:03:54.224Z,35.80
2018-07-30T11:06:24.913Z,35.60
2018-07-30T11:08:55.703Z,35.30
2018-07-30T11:11:26.661Z,35.20
2018-07-30T11:13:57.276Z,35.10
2018-07-30T11:16:27.952Z,35.20
2018-07-30T11:18:58.525Z,35.40
2018-07-30T11:21:29.286Z,35.50
2018-07-30T11:23:59.919Z,35.70
2018-07-30T11:26:30.591Z,35.60
2018-07-30T11:29:01.273Z,35.40
2018-07-30T11:31:32.004Z,35.20
2018-07-30T11:34:02.579Z,35.20
2018-07-30T11:36:33.240Z,35.00
2018-07-30T11:39:03.962Z,34.90
2018-07-30T11:41:34.581Z,34.80
2018-07-30T11:44:05.273Z,34.90
2018-07-30T11:46:35.907Z,34.80
2018-07-30T11:49:06.528Z,34.70
2018-07-30T11:51:37.174Z,34.70
2018-07-30T11:54:08.277Z,34.50
2018-07-30T11:56:38.898Z,34.60
2018-07-30T11:59:09.854Z,34.50
2018-07-30T12:01:40.508Z,34.40
2018-07-30T12:04:11.011Z,34.40
2018-07-30T12:06:41.799Z,34.50
2018-07-30T12:09:12.357Z,34.60
2018-07-30T12:11:43.025Z,34.70
2018-07-30T12:14:13.767Z,34.70
2018-07-30T12:16:44.422Z,34.70
2018-07-30T12:19:15.092Z,34.90
2018-07-30T12:21:45.850Z,35.00
2018-07-30T12:24:16.518Z,35.10
2018-07-30T12:29:17.149Z,35.30
2018-07-30T12:31:47.823Z,35.40
2018-07-30T12:34:18.385Z,35.50
2018-07-30T12:36:49.094Z,35.60
2018-07-30T12:39:19.780Z,35.50
2018-07-30T12:41:50.474Z,35.00
2018-07-30T12:44:21.175Z,34.70
2018-07-30T12:46:51.792Z,34.70
2018-07-30T12:52:18.853Z,35.00
2018-07-30T12:54:49.629Z,35.20
2018-07-30T12:57:20.272Z,35.30
2018-07-30T12:59:51.039Z,35.30
2018-07-30T13:02:21.665Z,35.40
2018-07-30T13:04:52.364Z,35.40
2018-07-30T13:07:23.030Z,35.20
2018-07-30T13:09:53.635Z,34.80
2018-07-30T13:12:24.300Z,34.80
2018-07-30T13:14:55.010Z,34.70
2018-07-30T13:17:25.636Z,34.70
2018-07-30T13:19:56.376Z,34.80
2018-07-30T13:22:27.083Z,35.00
2018-07-30T13:24:57.737Z,35.20
2018-07-30T13:27:28.346Z,35.50
2018-07-30T13:29:59.026Z,35.70
2018-07-30T13:32:29.698Z,35.90
2018-07-30T13:35:01.008Z,36.10
2018-07-30T13:37:31.743Z,36.20
2018-07-30T13:40:02.508Z,36.30
2018-07-30T13:42:33.249Z,36.10
2018-07-30T13:45:04.140Z,35.90
2018-07-30T13:47:34.793Z,35.90
2018-07-30T13:50:05.966Z,35.90
2018-07-30T13:52:36.647Z,35.90
2018-07-30T13:55:08.113Z,35.60
2018-07-30T13:57:39.058Z,35.50
2018-07-30T14:00:11.304Z,35.50
2018-07-30T14:02:42.006Z,35.50
2018-07-30T14:05:12.742Z,35.70
2018-07-30T14:07:43.438Z,35.80
2018-07-30T14:10:14.413Z,36.00
2018-07-30T14:12:45.624Z,36.10
2018-07-30T14:15:16.801Z,36.20
2018-07-30T14:17:47.444Z,36.00
2018-07-30T14:20:18.545Z,36.00
2018-07-30T14:22:49.463Z,36.00
2018-07-30T14:25:20.156Z,36.00
2018-07-30T14:30:53.209Z,36.20
2018-07-30T14:33:23.919Z,36.30
2018-07-30T14:35:54.601Z,36.40
2018-07-30T14:38:25.258Z,36.10
2018-07-30T14:40:55.994Z,35.90
2018-07-30T14:43:26.599Z,35.80
2018-07-30T14:45:57.387Z,35.80
2018-07-30T14:48:28.011Z,35.80
2018-07-30T14:50:58.663Z,35.70
2018-07-30T14:53:29.761Z,35.70
2018-07-30T14:56:00.438Z,35.80
2018-07-30T14:58:31.692Z,35.90
2018-07-30T15:01:02.362Z,36.00
2018-07-30T15:03:33.161Z,36.20
2018-07-30T15:06:04.145Z,36.20
2018-07-30T15:08:34.805Z,35.80
2018-07-30T15:11:07.981Z,35.60
2018-07-30T15:13:38.676Z,35.50
2018-07-30T15:16:09.609Z,35.30
2018-07-30T15:18:40.663Z,35.20
2018-07-30T15:21:11.358Z,35.10
2018-07-30T15:23:42.055Z,35.20
2018-07-30T15:26:12.721Z,35.10
2018-07-30T15:28:43.432Z,35.20
2018-07-30T15:31:14.058Z,35.40
2018-07-30T15:33:44.716Z,35.50
2018-07-30T15:36:15.601Z,35.70
2018-07-30T15:38:46.581Z,35.80
2018-07-30T15:41:17.372Z,35.90
2018-07-30T15:43:48.075Z,35.90
2018-07-30T15:46:18.743Z,35.90
2018-07-30T15:48:49.532Z,35.90
2018-07-30T15:51:20.228Z,35.70
2018-07-30T15:53:51.184Z,35.60
2018-07-30T15:56:22.098Z,35.60
2018-07-30T15:58:52.787Z,35.70
2018-07-30T16:01:34.093Z,35.80
2018-07-30T16:04:04.787Z,35.90
2018-07-30T16:06:35.415Z,36.00
2018-07-30T16:09:07.656Z,36.10
2018-07-30T16:11:38.807Z,36.10
2018-07-30T16:14:09.730Z,36.00
2018-07-30T16:16:40.612Z,36.10
2018-07-30T16:19:11.558Z,36.00
2018-07-30T16:21:42.429Z,36.10
2018-07-30T16:24:13.068Z,36.10
2018-07-30T16:26:43.794Z,35.90
2018-07-30T16:29:14.420Z,35.90
2018-07-30T16:31:45.398Z,35.90
2018-07-30T16:34:16.146Z,35.90
2018-07-30T16:36:46.777Z,35.90
2018-07-30T16:39:17.462Z,35.80
2018-07-30T16:41:48.148Z,35.70
2018-07-30T16:44:18.920Z,35.60
2018-07-30T16:50:17.344Z,35.60
2018-07-30T16:52:48.055Z,35.70
2018-07-30T16:55:18.831Z,35.70
2018-07-30T16:57:49.609Z,35.80
2018-07-30T17:00:20.266Z,35.80
2018-07-30T17:02:51.187Z,35.90
2018-07-30T17:05:22.013Z,35.90
2018-07-30T17:07:52.687Z,35.90
2018-07-30T17:12:53.719Z,37.10
2018-07-30T17:15:24.711Z,37.80
2018-07-30T17:17:55.873Z,38.20
2018-07-30T17:20:27.054Z,38.50
2018-07-30T17:23:20.758Z,38.80
2018-07-30T17:26:10.052Z,39.10
2018-07-30T17:28:43.101Z,39.60
2018-07-30T17:31:14.076Z,39.60
2018-07-30T17:33:45.017Z,39.20
2018-07-30T17:36:15.798Z,39.30
2018-07-30T17:38:46.358Z,39.60
2018-07-30T17:41:17.091Z,39.80
2018-07-30T17:43:47.711Z,40.10
2018-07-30T17:46:18.366Z,40.30
2018-07-30T17:48:49.222Z,39.60
2018-07-30T17:51:20.295Z,39.00
2018-07-30T17:53:56.022Z,38.00
2018-07-30T17:56:26.737Z,36.70
2018-07-30T18:04:50.691Z,34.50
2018-07-30T18:10:16.266Z,33.70
2018-07-30T18:12:47.587Z,33.50
2018-07-30T18:15:18.322Z,33.20
2018-07-30T18:17:49.090Z,33.00
2018-07-30T18:20:19.968Z,32.80
2018-07-30T18:22:56.197Z,32.60
2018-07-30T18:25:27.155Z,32.50
2018-07-30T18:27:58.157Z,32.30
2018-07-30T18:30:29.373Z,32.20
2018-07-30T18:33:00.495Z,32.20
2018-07-30T18:35:31.169Z,32.20
2018-07-30T18:38:01.915Z,32.00
2018-07-30T18:40:32.638Z,31.90
2018-07-30T18:43:03.305Z,31.70
2018-07-30T18:45:33.972Z,31.60
2018-07-30T18:48:05.003Z,31.40
2018-07-30T18:50:35.717Z,31.20
2018-07-30T18:53:06.534Z,31.00
2018-07-30T18:55:37.215Z,30.80
2018-07-30T18:58:07.926Z,30.70
2018-07-30T19:00:38.846Z,30.50
2018-07-30T19:03:09.826Z,30.40
2018-07-30T19:05:41.340Z,30.30
2018-07-30T19:08:12.374Z,30.10
2018-07-30T19:10:43.519Z,30.00
2018-07-30T19:13:14.823Z,29.80
2018-07-30T19:15:45.999Z,29.60
2018-07-30T19:18:16.618Z,29.50
2018-07-30T19:20:47.743Z,29.40
2018-07-30T19:23:18.588Z,29.30
2018-07-30T19:25:49.644Z,29.20
2018-07-30T19:28:20.592Z,29.10
2018-07-30T19:30:51.753Z,29.00
2018-07-30T19:33:22.828Z,29.00
2018-07-30T19:35:54.415Z,28.90
2018-07-30T19:38:25.183Z,28.80
2018-07-30T19:40:56.214Z,28.60
2018-07-30T19:43:28.503Z,28.50
2018-07-30T19:45:59.596Z,28.30
2018-07-30T19:48:30.374Z,28.20
2018-07-30T19:51:01.301Z,28.00
2018-07-30T19:53:32.053Z,27.90
2018-07-30T19:56:03.200Z,27.90
2018-07-30T19:58:34.065Z,27.80
2018-07-30T20:01:05.018Z,27.70
2018-07-30T20:03:35.800Z,27.60
2018-07-30T20:06:06.569Z,27.50
2018-07-30T20:08:37.256Z,27.40
2018-07-30T20:13:38.969Z,27.10
2018-07-30T20:16:09.636Z,27.00
2018-07-30T20:18:40.395Z,26.90
2018-07-30T20:21:11.210Z,26.70
2018-07-30T20:23:42.200Z,26.60
2018-07-30T20:26:13.036Z,26.50
2018-07-30T20:28:43.799Z,26.40
2018-07-30T20:31:18.914Z,26.40
2018-07-30T20:33:49.651Z,26.30
2018-07-30T20:36:20.443Z,26.20
2018-07-30T20:38:51.350Z,26.10
2018-07-30T20:43:52.740Z,25.90
2018-07-30T20:46:23.822Z,25.80
2018-07-30T20:48:54.728Z,25.70
2018-07-30T20:51:25.711Z,25.60
2018-07-30T20:53:56.741Z,25.60
2018-07-30T20:56:27.884Z,25.60
2018-07-30T20:58:58.694Z,25.60
2018-07-30T21:01:29.344Z,25.40
2018-07-30T21:04:00.041Z,25.40
2018-07-30T21:13:04.073Z,25.40
2018-07-30T21:15:35.145Z,25.40
2018-07-30T21:18:06.256Z,25.30
2018-07-30T21:20:37.474Z,25.10
2018-07-30T21:23:08.539Z,25.10
2018-07-30T21:25:39.449Z,25.10
2018-07-30T21:28:10.732Z,25.00
2018-07-30T21:30:41.682Z,25.00
2018-07-30T21:33:12.518Z,25.00
2018-07-30T21:35:43.442Z,25.10
2018-07-30T21:38:14.618Z,25.10
2018-07-30T21:40:45.362Z,25.00
2018-07-30T21:43:16.061Z,25.00
2018-07-30T21:45:47.378Z,24.90
2018-07-30T21:48:18.036Z,24.90
2018-07-30T21:50:48.751Z,24.80
2018-07-30T21:53:19.375Z,24.70
2018-07-30T21:55:50.152Z,24.50
2018-07-30T21:58:20.795Z,24.40
2018-07-30T22:00:58.490Z,24.30
2018-07-30T22:03:29.121Z,24.20
2018-07-30T22:06:00.914Z,24.10
2018-07-30T22:11:01.939Z,24.00
2018-07-30T22:13:32.679Z,23.90
2018-07-30T22:16:03.404Z,23.90
2018-07-30T22:18:34.397Z,23.90
2018-07-30T22:21:05.107Z,23.80
2018-07-30T22:23:35.726Z,23.80
2018-07-30T22:26:06.671Z,23.70
2018-07-30T22:28:37.355Z,23.60
2018-07-30T22:31:08.613Z,23.60
2018-07-30T22:33:40.158Z,23.60
2018-07-30T22:36:10.909Z,23.50
2018-07-30T22:38:42.053Z,23.40
2018-07-30T22:41:13.207Z,23.30
2018-07-30T22:43:44.452Z,23.30
2018-07-30T22:46:15.585Z,23.20
2018-07-30T22:48:46.518Z,23.10
2018-07-30T22:51:17.650Z,23.00
2018-07-30T22:53:48.596Z,22.90
2018-07-30T22:56:19.547Z,22.90
2018-07-30T22:58:50.264Z,22.70
2018-07-30T23:01:21.481Z,22.60
2018-07-30T23:03:52.165Z,22.60
2018-07-30T23:06:22.904Z,22.60
2018-07-30T23:08:53.647Z,22.60
2018-07-30T23:11:24.319Z,22.60
2018-07-30T23:13:54.996Z,22.60
2018-07-30T23:16:26.167Z,22.50
2018-07-30T23:18:57.081Z,22.50
2018-07-30T23:21:27.848Z,22.40
2018-07-30T23:23:58.575Z,22.30
2018-07-30T23:26:29.235Z,22.20
2018-07-30T23:28:59.944Z,22.10
2018-07-30T23:31:30.856Z,22.10
2018-07-30T23:34:01.997Z,22.10
2018-07-30T23:36:33.322Z,22.00
2018-07-30T23:39:05.087Z,21.90
2018-07-30T23:41:36.166Z,21.80
2018-07-30T23:44:07.489Z,21.80
2018-07-30T23:46:38.376Z,21.70
2018-07-30T23:49:09.615Z,21.70
2018-07-30T23:51:40.518Z,21.60
2018-07-30T23:54:11.278Z,21.50
2018-07-30T23:56:42.316Z,21.50
2018-07-30T23:59:13.045Z,21.40
